LIPQ

Trieste–Friuli Venezia Giulia Airport

Trieste, Italy
TAF LIPQ 192300Z 2000/2024 VRB05KT 9999 FEW040
Issued Valid From Valid To
Sep-19 @ 23:00 UTC
(2 hours ago)
Sep-20 @ 00:00 UTC
(an hour ago)
Sep-21 @ 00:00 UTC
(in 23 hours)
Sep-20 @ 00:00 to Sep-21 @ 00:00
TAF LIPQ 192300Z 2000/2024 VRB05KT 9999 FEW040
Wind Visibility Clouds
Variable at 5 knots 10,000+ meters
  • Few at 4,000' AGL
TAF LIPQ 192300Z 2000/2024 VRB05KT 9999 FEW040
Issued Sep-19 @ 23:00 UTC
(2 hours ago)
Valid From Sep-20 @ 00:00 UTC
(an hour ago)
Valid To Sep-21 @ 00:00 UTC
(in 23 hours)
Sep-20 @ 00:00 - Sep-21 @ 00:00
Wind Visibility
Variable at 5 knots 10,000+ meters
Clouds
  • Few at 4,000' AGL